Melbourne, Washington
Current Conditions -  °F | °C
As of 10:53 AM on Tuesday 27 Jan 2015 (Local Time) from KSHN Reporting Station
Overcast Overcast  
Wind Chill: 51°   Ceiling: 1200
Heat Index: 51°   Visibility: 8mi
Dew Point: 49°   Wind: 6mph
Humidity: 92%   Direction: 210°SSW
Pressure: 30.06"   Gusts: NA
Location:  47.555°N, 123.746°W
Report Text: KSHN 271853Z AUTO 21005KT 8SM SCT006 OVC012 11/09 A3006 RMK AO2 SLP182 T01060094
Loading
Personal Weather Stations






























Interactive Weather Map New forecast layout! Learn more

10-Day Weather Forecast

Advertisements
Track Severe Weather on mobile